16X weather

Propwash Airport
Justin, Texas, United States

Public forecast

Using degrees Fahrenheit for public forecast. Weather courtesy of forecast.io.

Closest aviation weather report (METAR) to Propwash Airport

Closest report is Fort Worth Alliance Airport, 5.9 nm (11.0 km) SSE. Retrieved 2020/08/04 09:53 UTC (51 minutes ago):

KAFW 040953Z 05005KT 10SM SCT300 24/17 A3003 RMK AO2 SLP153 T02390167

Closest aviation forecast (TAF) to Propwash Airport

Closest forecast is Fort Worth Alliance Airport, 5.9 nm (11.0 km) SSE. Retrieved 2020/08/04 06:33 UTC (4 hours ago):

TAF KAFW 040530Z 0406/0506 06007KT P6SM FEW250